Time;durP1;ratioP1;P1;durP2;ratioP2;P2;SDS_P1;SDS_P2;PMS_P1;PMS_P2;Temp;Humidity;BMP_temperature;BMP_pressure;BME280_temperature;BME280_humidity;BME280_pressure;Samples;Min_cycle;Max_cycle;Signal;HPM_P1;HPM_P2
2021/07/10 03:01:04;;;;;;;5.13;4.53;;;12.60;99.90;;;;;;6051933;23;89036;31
2021/07/10 03:03:30;;;;;;;5.05;4.55;;;12.60;99.90;;;;;;4905764;28;88610;-84
2021/07/10 03:05:56;;;;;;;7.65;4.90;;;12.60;99.90;;;;;;4910482;28;86955;-85
2021/07/10 03:08:21;;;;;;;5.80;4.95;;;12.50;99.90;;;;;;4913506;28;87166;-84
2021/07/10 03:10:47;;;;;;;5.97;4.57;;;12.50;99.90;;;;;;4911378;28;86762;-84
2021/07/10 03:13:15;;;;;;;6.28;5.68;;;12.50;99.90;;;;;;4911367;28;86840;-84
2021/07/10 03:15:41;;;;;;;7.97;4.90;;;12.50;99.90;;;;;;4910955;28;86627;-83
2021/07/10 03:18:06;;;;;;;6.25;5.07;;;12.60;99.90;;;;;;4912341;28;86951;-85
2021/07/10 03:20:32;;;;;;;7.32;5.50;;;12.50;99.90;;;;;;4912179;28;87265;-84
2021/07/10 03:22:59;;;;;;;7.65;5.43;;;12.50;99.90;;;;;;4912473;28;87305;-83
2021/07/10 03:25:25;;;;;;;7.53;5.97;;;12.50;99.90;;;;;;4910937;28;87050;-84
2021/07/10 03:27:52;;;;;;;7.47;5.70;;;12.50;99.90;;;;;;4908146;28;88382;-82
2021/07/10 03:30:20;;;;;;;8.07;6.15;;;12.60;99.90;;;;;;4907955;28;87435;-83
2021/07/10 03:32:46;;;;;;;9.00;5.63;;;12.60;99.90;;;;;;4908945;28;87178;-84
2021/07/10 03:35:13;;;;;;;8.27;5.82;;;12.60;99.90;;;;;;4913594;28;86740;-82
2021/07/10 03:37:39;;;;;;;6.82;5.95;;;12.60;99.90;;;;;;4906201;28;87799;-84
2021/07/10 03:40:08;;;;;;;6.72;6.03;;;12.60;99.90;;;;;;4904636;28;87095;-83
2021/07/10 03:42:33;;;;;;;8.95;6.35;;;12.60;99.90;;;;;;4897160;28;86923;-82
2021/07/10 03:44:59;;;;;;;6.45;5.75;;;12.60;99.90;;;;;;4909146;28;85767;-83
2021/07/10 03:47:25;;;;;;;8.20;6.15;;;12.60;99.90;;;;;;4907505;28;86977;-84
2021/07/10 03:49:50;;;;;;;8.23;6.15;;;12.70;99.90;;;;;;4907775;28;87844;-84
2021/07/10 03:52:16;;;;;;;7.50;6.43;;;12.70;99.90;;;;;;4911662;28;88315;-82
2021/07/10 03:54:42;;;;;;;7.20;6.30;;;12.70;99.90;;;;;;4907258;28;86840;-84
2021/07/10 03:57:07;;;;;;;7.75;5.55;;;12.80;99.90;;;;;;4907968;28;87840;-82
2021/07/10 03:59:34;;;;;;;6.25;5.22;;;12.70;99.90;;;;;;4913031;28;87318;-84
2021/07/10 04:01:59;;;;;;;6.40;5.78;;;12.80;99.90;;;;;;4910102;28;87086;-84
2021/07/10 04:04:25;;;;;;;7.53;5.63;;;12.80;99.90;;;;;;4915126;28;89363;-84
2021/07/10 04:06:51;;;;;;;7.63;6.15;;;12.80;99.90;;;;;;4927496;28;88198;-84
2021/07/10 04:09:17;;;;;;;7.43;6.07;;;12.90;99.90;;;;;;4922260;28;86997;-84
2021/07/10 04:11:42;;;;;;;7.35;5.93;;;12.90;99.90;;;;;;4925840;28;86942;-84
2021/07/10 04:14:08;;;;;;;6.68;5.65;;;12.90;99.90;;;;;;4928431;28;86831;-84
2021/07/10 04:16:34;;;;;;;6.63;5.45;;;13.00;99.90;;;;;;4930888;28;88994;-84
2021/07/10 04:18:59;;;;;;;8.85;6.03;;;13.10;99.90;;;;;;4929032;28;88365;-84
2021/07/10 04:21:25;;;;;;;10.80;6.38;;;13.10;99.90;;;;;;4917536;28;86881;-84
2021/07/10 04:23:52;;;;;;;7.00;6.20;;;13.10;99.90;;;;;;4925972;28;87021;-84
2021/07/10 04:26:18;;;;;;;7.05;5.82;;;13.20;99.90;;;;;;4925361;28;86900;-83
2021/07/10 04:28:43;;;;;;;6.65;5.68;;;13.20;99.90;;;;;;4926410;28;87278;-84
2021/07/10 04:31:09;;;;;;;6.40;5.80;;;13.30;99.90;;;;;;4915274;28;86984;-83
2021/07/10 04:33:35;;;;;;;8.20;6.63;;;13.40;99.90;;;;;;4908414;28;86185;-82
2021/07/10 04:36:01;;;;;;;6.82;5.47;;;13.50;99.90;;;;;;4913915;28;87613;-83
2021/07/10 04:38:27;;;;;;;8.50;6.00;;;13.50;99.90;;;;;;4916937;28;87991;-84
2021/07/10 04:40:52;;;;;;;7.05;5.47;;;13.50;99.90;;;;;;4916501;28;87112;-83
2021/07/10 04:43:18;;;;;;;7.28;5.20;;;13.60;99.90;;;;;;4927584;28;86456;-84
2021/07/10 04:45:44;;;;;;;6.53;4.95;;;13.70;99.90;;;;;;4928859;28;87339;-84
2021/07/10 04:48:10;;;;;;;6.70;5.50;;;13.80;99.90;;;;;;4915506;28;87375;-83
2021/07/10 04:50:36;;;;;;;7.13;4.93;;;13.80;99.90;;;;;;4929650;28;86917;-84
2021/07/10 04:53:01;;;;;;;6.80;6.10;;;13.90;99.90;;;;;;4927053;28;86814;-83
2021/07/10 04:55:27;;;;;;;5.30;4.78;;;13.90;99.90;;;;;;4927584;28;87245;-83
2021/07/10 04:57:53;;;;;;;6.53;5.45;;;13.90;99.90;;;;;;4913946;28;86514;-84
2021/07/10 05:00:19;;;;;;;6.72;5.28;;;13.90;99.90;;;;;;4926376;28;86517;-82
2021/07/10 05:02:45;;;;;;;6.88;5.40;;;14.00;99.90;;;;;;4921864;28;87892;-83
2021/07/10 05:05:12;;;;;;;7.47;5.57;;;14.10;99.90;;;;;;4922267;28;89431;-84
2021/07/10 05:07:38;;;;;;;6.95;5.30;;;14.10;99.90;;;;;;4926828;28;87598;-83
2021/07/10 05:10:07;;;;;;;6.30;5.20;;;14.20;99.90;;;;;;4926994;28;87128;-83
2021/07/10 05:12:33;;;;;;;7.72;5.38;;;14.20;99.90;;;;;;4913705;28;87063;-84
2021/07/10 05:14:58;;;;;;;5.63;4.80;;;14.30;99.90;;;;;;4928304;28;87400;-84
2021/07/10 05:17:24;;;;;;;6.78;5.85;;;14.40;99.90;;;;;;4925793;28;87006;-84
2021/07/10 05:19:51;;;;;;;6.07;5.43;;;14.50;99.90;;;;;;4918514;28;87044;-82
2021/07/10 05:22:17;;;;;;;7.57;5.57;;;14.60;99.90;;;;;;4917752;28;86285;-83
2021/07/10 05:24:43;;;;;;;7.75;5.15;;;14.70;99.90;;;;;;4931669;28;87095;-85
2021/07/10 05:27:09;;;;;;;4.88;4.38;;;14.80;99.90;;;;;;4934499;28;87990;-84
2021/07/10 05:29:35;;;;;;;5.22;4.53;;;14.90;99.90;;;;;;4939206;28;87729;-84
2021/07/10 05:32:01;;;;;;;5.80;4.20;;;15.00;99.90;;;;;;4943668;28;86794;-82
2021/07/10 05:34:27;;;;;;;5.53;4.00;;;15.10;99.90;;;;;;4944771;28;87322;-82
2021/07/10 05:36:53;;;;;;;4.78;4.18;;;15.30;99.90;;;;;;4938624;28;86803;-84
2021/07/10 05:39:19;;;;;;;5.53;3.85;;;15.40;99.90;;;;;;4932821;28;86562;-84
2021/07/10 05:41:45;;;;;;;4.65;3.97;;;15.50;99.90;;;;;;4932340;28;86923;-84
2021/07/10 05:44:10;;;;;;;5.35;3.80;;;15.70;99.90;;;;;;4931735;28;87195;-82
2021/07/10 05:46:36;;;;;;;4.15;3.67;;;15.80;99.90;;;;;;4933577;28;87375;-84
2021/07/10 05:49:02;;;;;;;4.57;3.75;;;15.90;99.90;;;;;;4932689;28;86989;-84
2021/07/10 05:51:28;;;;;;;5.10;3.97;;;16.10;99.90;;;;;;4928714;28;86251;-84
2021/07/10 05:53:54;;;;;;;3.90;3.50;;;16.20;99.90;;;;;;4924060;28;88152;-84
2021/07/10 05:56:20;;;;;;;4.88;4.13;;;16.30;99.90;;;;;;4932176;28;87863;-84
2021/07/10 05:58:45;;;;;;;5.63;4.15;;;16.40;99.90;;;;;;4932552;28;86924;-85
2021/07/10 06:01:11;;;;;;;4.20;3.80;;;16.60;99.90;;;;;;4932283;28;86911;-84
2021/07/10 06:03:37;;;;;;;4.97;3.95;;;16.60;99.90;;;;;;4931747;28;88441;-85
2021/07/10 06:06:03;;;;;;;4.20;3.30;;;16.70;99.90;;;;;;4932922;28;86971;-84
2021/07/10 06:08:29;;;;;;;4.07;3.70;;;16.80;99.90;;;;;;4935334;28;86862;-84
2021/07/10 06:10:55;;;;;;;5.10;3.83;;;17.00;99.90;;;;;;4931295;28;86227;-84
2021/07/10 06:13:21;;;;;;;4.65;3.80;;;17.20;99.90;;;;;;4932310;28;87850;-83
2021/07/10 06:15:47;;;;;;;6.57;5.00;;;17.30;99.90;;;;;;4934222;28;86719;-83
2021/07/10 06:18:12;;;;;;;5.40;4.90;;;17.40;99.90;;;;;;4931362;28;88731;-83
2021/07/10 06:20:39;;;;;;;4.85;4.32;;;17.40;99.90;;;;;;4932496;28;87032;-83
2021/07/10 06:23:06;;;;;;;5.32;4.82;;;17.50;99.90;;;;;;4933341;28;88292;-82
2021/07/10 06:25:36;;;;;;;5.90;4.60;;;17.60;99.90;;;;;;4931695;28;86961;-84
2021/07/10 06:28:04;;;;;;;5.00;4.50;;;17.70;99.90;;;;;;4932168;28;87017;-84
2021/07/10 06:30:30;;;;;;;6.78;4.80;;;17.90;99.90;;;;;;4931421;28;86957;-84
2021/07/10 06:32:56;;;;;;;4.93;4.32;;;18.00;99.90;;;;;;4935397;28;88277;-85
2021/07/10 06:35:22;;;;;;;8.52;4.25;;;18.00;99.90;;;;;;4934041;28;88069;-82
2021/07/10 06:37:47;;;;;;;4.40;4.00;;;18.10;99.90;;;;;;4937603;28;86654;-84
2021/07/10 06:40:19;;;;;;;4.47;4.07;;;18.20;99.90;;;;;;4932180;28;86689;-82
2021/07/10 06:42:46;;;;;;;4.50;4.10;;;18.30;99.90;;;;;;4934483;28;88265;-80
2021/07/10 06:45:14;;;;;;;4.63;4.22;;;18.40;99.90;;;;;;4921269;28;87087;-85
2021/07/10 06:47:40;;;;;;;4.63;3.70;;;18.50;99.90;;;;;;4920622;28;86452;-84
2021/07/10 06:50:08;;;;;;;4.57;4.03;;;18.60;99.90;;;;;;4926363;28;86606;-83
2021/07/10 06:52:35;;;;;;;6.22;4.07;;;18.70;99.90;;;;;;4931445;28;87359;-83
2021/07/10 06:55:01;;;;;;;6.50;5.03;;;18.90;99.90;;;;;;4932459;28;87137;-83
2021/07/10 06:57:27;;;;;;;5.35;4.35;;;19.00;99.90;;;;;;4936511;28;86939;-84
2021/07/10 06:59:52;;;;;;;5.28;4.75;;;19.00;99.90;;;;;;4938671;28;86359;-80
2021/07/10 07:02:18;;;;;;;7.45;5.35;;;19.20;99.90;;;;;;4937437;28;86681;-82
2021/07/10 07:04:44;;;;;;;5.47;4.78;;;19.30;99.90;;;;;;4954617;28;86815;-81
2021/07/10 07:07:09;;;;;;;7.65;4.53;;;19.30;99.90;;;;;;4940431;28;87261;-83
2021/07/10 07:09:36;;;;;;;5.93;4.60;;;19.40;99.90;;;;;;4934545;28;91503;-83
2021/07/10 07:12:02;;;;;;;5.93;4.82;;;19.40;99.90;;;;;;4926816;28;87366;-82
2021/07/10 07:14:28;;;;;;;4.75;4.22;;;19.50;99.90;;;;;;4920119;28;89222;-81
2021/07/10 07:16:58;;;;;;;5.10;4.60;;;19.60;99.90;;;;;;4930118;28;86314;-82
2021/07/10 07:19:30;;;;;;;4.95;4.45;;;19.60;99.90;;;;;;4934298;28;86316;-83
2021/07/10 07:21:56;;;;;;;5.20;4.70;;;19.60;99.90;;;;;;4935190;28;88076;-82
2021/07/10 07:24:22;;;;;;;6.22;4.88;;;19.70;99.90;;;;;;4935491;28;87294;-81
2021/07/10 07:26:48;;;;;;;6.70;4.85;;;19.80;99.90;;;;;;4934435;28;86726;-80
2021/07/10 07:29:14;;;;;;;5.85;5.03;;;19.80;99.90;;;;;;4935686;28;86683;-83
2021/07/10 07:31:40;;;;;;;5.50;5.00;;;19.90;99.90;;;;;;4934358;28;87870;-82
2021/07/10 07:34:05;;;;;;;5.28;4.68;;;20.00;99.90;;;;;;4934515;28;88232;-82
2021/07/10 07:36:31;;;;;;;5.32;4.82;;;20.00;99.90;;;;;;4936210;28;86672;-83
2021/07/10 07:38:57;;;;;;;5.28;4.78;;;20.10;99.90;;;;;;4936037;28;86826;-82
2021/07/10 07:41:22;;;;;;;6.88;4.78;;;20.00;99.90;;;;;;4935121;28;87636;-82
2021/07/10 07:43:48;;;;;;;5.80;4.75;;;20.00;99.90;;;;;;4935097;28;86913;-82
2021/07/10 07:49:36;;;;;;;5.32;4.38;;;20.10;99.90;;;;;;4933915;28;85982;-80
2021/07/10 07:52:03;;;;;;;5.80;4.63;;;20.30;99.90;;;;;;4935243;28;88313;-82
2021/07/10 07:54:29;;;;;;;5.80;4.55;;;20.60;99.90;;;;;;4936684;28;86834;-80
2021/07/10 07:56:54;;;;;;;5.45;4.95;;;20.90;99.90;;;;;;4936268;28;87611;-82
2021/07/10 07:59:20;;;;;;;7.40;5.00;;;20.80;99.90;;;;;;4936195;28;87031;-82
2021/07/10 08:01:46;;;;;;;5.15;4.65;;;21.10;99.90;;;;;;4934645;28;86837;-83
2021/07/10 08:04:12;;;;;;;5.90;5.10;;;21.30;99.90;;;;;;4934483;28;86694;-81
2021/07/10 08:06:37;;;;;;;6.85;5.50;;;21.50;99.90;;;;;;4935427;28;86206;-81
2021/07/10 08:09:04;;;;;;;5.53;4.88;;;21.60;99.90;;;;;;4933291;28;95042;-82
2021/07/10 08:11:31;;;;;;;6.05;5.47;;;21.70;99.90;;;;;;4932545;28;87282;-83
2021/07/10 08:13:57;;;;;;;6.82;5.45;;;21.80;99.90;;;;;;4932703;28;86357;-83
2021/07/10 08:19:45;;;;;;;4.65;4.25;;;22.00;99.40;;;;;;4931149;28;87030;-83
2021/07/10 08:22:10;;;;;;;6.88;5.60;;;22.20;99.60;;;;;;4932158;28;88093;-83
2021/07/10 08:24:36;;;;;;;6.63;5.28;;;22.30;97.70;;;;;;4939943;28;87295;-83
2021/07/10 08:27:02;;;;;;;6.13;5.22;;;22.40;97.80;;;;;;4936424;28;86656;-82
2021/07/10 08:29:28;;;;;;;5.97;5.38;;;22.50;97.80;;;;;;4918896;28;86865;-80
2021/07/10 08:31:54;;;;;;;7.15;6.55;;;22.80;97.50;;;;;;4915207;28;86576;-83
2021/07/10 08:37:42;;;;;;;6.10;5.50;;;22.70;96.50;;;;;;4913689;28;86621;-83
2021/07/10 08:43:30;;;;;;;6.32;5.00;;;22.90;96.90;;;;;;4918832;28;87166;-83
2021/07/10 08:50:11;;;;;;;7.05;5.28;;;23.10;95.80;;;;;;4933722;28;87587;-82
2021/07/10 08:52:37;;;;;;;7.57;5.55;;;23.10;94.80;;;;;;4934930;28;86899;-83
2021/07/10 08:55:05;;;;;;;8.27;5.45;;;23.40;95.30;;;;;;4933044;28;86933;-84
2021/07/10 08:57:35;;;;;;;5.70;5.20;;;23.50;95.50;;;;;;4917719;28;87106;-83
2021/07/10 09:00:12;;;;;;;6.78;4.60;;;23.90;94.40;;;;;;4918047;28;86844;-83
2021/07/10 09:02:42;;;;;;;6.50;5.45;;;24.20;94.10;;;;;;4918598;28;86796;-83
2021/07/10 09:05:08;;;;;;;6.47;5.63;;;24.50;93.60;;;;;;4932093;28;87230;-83
2021/07/10 09:08:09;;;;;;;6.93;5.28;;;24.90;93.20;;;;;;4936285;28;86978;-83
2021/07/10 09:10:36;;;;;;;5.75;5.20;;;25.40;92.10;;;;;;4950368;28;86214;-83
2021/07/10 09:13:02;;;;;;;6.07;4.82;;;25.90;91.80;;;;;;4947295;28;87149;-84
2021/07/10 09:15:28;;;;;;;5.60;5.10;;;26.60;90.40;;;;;;4948188;28;89669;-87
2021/07/10 09:17:53;;;;;;;5.13;4.72;;;27.30;87.90;;;;;;4943690;28;87723;-84
2021/07/10 09:20:24;;;;;;;5.78;5.28;;;28.30;83.20;;;;;;4949342;28;86101;-83
2021/07/10 09:22:51;;;;;;;5.15;4.70;;;29.50;77.80;;;;;;4946187;28;86047;-83
2021/07/10 09:25:29;;;;;;;5.60;5.00;;;30.50;71.30;;;;;;4943951;28;87107;-85
2021/07/10 09:27:58;;;;;;;4.88;4.47;;;31.70;65.20;;;;;;4943034;28;86938;-85
2021/07/10 09:30:35;;;;;;;5.70;4.93;;;32.60;63.70;;;;;;4938648;28;86716;-85
2021/07/10 09:33:16;;;;;;;7.03;4.75;;;33.60;58.20;;;;;;4923442;28;85610;-85
2021/07/10 09:35:57;;;;;;;5.10;4.70;;;34.80;55.00;;;;;;4927523;28;87333;-86
2021/07/10 09:38:26;;;;;;;5.20;4.70;;;35.20;52.80;;;;;;4951666;28;87797;-85
2021/07/10 09:41:13;;;;;;;6.80;6.13;;;36.30;50.80;;;;;;4956659;28;87121;-84
2021/07/10 09:43:40;;;;;;;5.57;5.07;;;37.10;48.30;;;;;;4941599;28;86235;-83
2021/07/10 09:46:08;;;;;;;8.00;7.40;;;38.50;46.50;;;;;;4940792;28;87289;-84
2021/07/10 09:48:40;;;;;;;5.60;5.10;;;38.40;46.80;;;;;;4940635;28;86990;-83
2021/07/10 09:51:35;;;;;;;6.05;4.93;;;38.90;44.40;;;;;;4937459;28;86658;-84
2021/07/10 09:54:03;;;;;;;5.80;5.30;;;39.60;43.70;;;;;;4935867;28;86839;-83
2021/07/10 09:56:30;;;;;;;5.80;5.30;;;39.40;43.30;;;;;;4939669;28;89043;-83
2021/07/10 09:58:57;;;;;;;4.85;4.55;;;39.80;43.10;;;;;;4939106;28;86004;-83
2021/07/10 10:01:36;;;;;;;5.80;5.18;;;39.90;42.00;;;;;;4936177;28;87016;-84
2021/07/10 10:04:29;;;;;;;5.93;5.43;;;40.20;41.80;;;;;;4940293;28;86061;-83
2021/07/10 10:06:57;;;;;;;4.95;4.60;;;41.20;40.00;;;;;;4940872;28;87953;-84
2021/07/10 10:09:26;;;;;;;5.70;4.85;;;41.50;41.30;;;;;;4940648;28;88282;-85
2021/07/10 10:11:59;;;;;;;8.00;6.72;;;42.40;38.50;;;;;;4939307;28;86106;-85
2021/07/10 10:14:29;;;;;;;5.30;4.80;;;42.60;38.00;;;;;;4936436;28;86928;-86
2021/07/10 10:16:56;;;;;;;4.60;4.20;;;43.00;37.30;;;;;;4938419;28;88187;-84
2021/07/10 10:19:25;;;;;;;7.30;6.80;;;42.50;36.70;;;;;;4940802;28;86664;-82
2021/07/10 10:21:54;;;;;;;8.13;7.38;;;42.40;36.20;;;;;;4939566;28;86801;-82
2021/07/10 10:24:23;;;;;;;7.10;6.65;;;43.60;35.60;;;;;;4939720;28;85952;-83
2021/07/10 10:26:50;;;;;;;4.57;4.28;;;43.20;35.90;;;;;;4939779;28;87684;-83
2021/07/10 10:29:18;;;;;;;6.70;6.30;;;43.90;34.60;;;;;;4938326;28;86811;-85
2021/07/10 10:31:45;;;;;;;3.88;3.58;;;43.90;34.90;;;;;;4934879;28;88099;-84
2021/07/10 10:38:13;;;;;;;6.25;5.85;;;45.70;34.10;;;;;;4954751;28;86894;-85
2021/07/10 10:40:40;;;;;;;4.20;3.90;;;45.80;33.50;;;;;;4958061;28;87332;-83
2021/07/10 10:43:06;;;;;;;4.55;4.25;;;46.20;32.10;;;;;;4958927;28;86647;-84
2021/07/10 10:48:55;;;;;;;3.70;3.50;;;46.60;31.90;;;;;;4957240;28;86222;-83
2021/07/10 10:51:35;;;;;;;4.25;4.05;;;46.80;30.70;;;;;;4954196;28;86225;-84
2021/07/10 10:54:19;;;;;;;3.80;3.60;;;47.10;30.70;;;;;;4940022;28;86358;-85
2021/07/10 10:56:45;;;;;;;3.90;3.70;;;47.40;29.90;;;;;;4937432;28;86776;-86
2021/07/10 10:59:45;;;;;;;3.90;3.70;;;47.50;30.00;;;;;;4936397;28;89156;-85
2021/07/10 11:02:33;;;;;;;4.10;3.90;;;46.60;30.60;;;;;;4921506;28;87044;-84
2021/07/10 11:05:00;;;;;;;4.38;4.07;;;46.10;30.60;;;;;;4926748;28;86263;-84
2021/07/10 11:07:38;;;;;;;6.65;6.35;;;46.10;30.90;;;;;;4920745;28;86687;-84
2021/07/10 11:10:03;;;;;;;5.68;5.45;;;46.30;30.30;;;;;;4924796;28;87820;-84
2021/07/10 11:12:55;;;;;;;6.10;5.90;;;47.10;30.40;;;;;;4922957;28;86660;-85
2021/07/10 11:15:27;;;;;;;5.90;5.60;;;47.30;30.00;;;;;;4925845;28;86809;-85
2021/07/10 11:18:01;;;;;;;5.78;5.47;;;47.70;30.00;;;;;;4939642;28;86016;-84
2021/07/10 11:20:44;;;;;;;6.22;5.93;;;47.40;29.70;;;;;;4923857;28;86597;-84
2021/07/10 11:23:29;;;;;;;4.25;4.05;;;46.80;29.90;;;;;;4924696;28;86925;-85
2021/07/10 11:26:02;;;;;;;4.40;4.10;;;46.20;30.80;;;;;;4925769;28;87128;-83
2021/07/10 11:28:32;;;;;;;4.35;4.05;;;46.90;31.10;;;;;;4926365;28;86757;-84
2021/07/10 11:31:39;;;;;;;7.07;6.57;;;47.50;29.50;;;;;;4940466;28;86775;-84
2021/07/10 11:34:35;;;;;;;4.30;4.10;;;47.70;29.40;;;;;;4941516;28;87092;-84
2021/07/10 11:37:11;;;;;;;6.30;6.00;;;47.20;30.00;;;;;;4938560;28;86823;-85
2021/07/10 11:39:38;;;;;;;4.22;4.03;;;46.30;30.50;;;;;;4922528;28;86798;-85
2021/07/10 11:42:41;;;;;;;4.30;4.10;;;46.30;31.00;;;;;;4935654;28;87744;-86
2021/07/10 11:45:24;;;;;;;6.50;6.20;;;46.70;30.00;;;;;;4922396;28;87026;-86
2021/07/10 11:47:52;;;;;;;6.15;5.80;;;45.80;31.40;;;;;;4912218;28;86864;-90
2021/07/10 11:50:27;;;;;;;;;;;46.20;32.20;;;;;;4924603;28;87528;-88
2021/07/10 11:53:10;;;;;;;4.28;4.03;;;45.90;30.70;;;;;;4926994;28;88477;-86
2021/07/10 11:55:40;;;;;;;6.50;6.10;;;44.70;31.90;;;;;;4922063;28;87176;-87
2021/07/10 11:58:17;;;;;;;6.05;5.68;;;44.00;32.50;;;;;;4927739;28;87073;-87
2021/07/10 12:00:45;;;;;;;3.80;3.60;;;43.70;33.10;;;;;;4926069;28;86639;-87
2021/07/10 12:03:22;;;;;;;6.07;5.77;;;43.70;33.10;;;;;;4925419;28;88433;-86
2021/07/10 12:05:49;;;;;;;4.05;3.85;;;44.80;31.60;;;;;;4926037;28;87449;-86
2021/07/10 12:08:15;;;;;;;3.90;3.70;;;45.70;32.00;;;;;;4925390;28;87431;-86
2021/07/10 12:10:44;;;;;;;3.90;3.70;;;46.20;31.70;;;;;;4931112;28;86194;-88
2021/07/10 12:13:18;;;;;;;6.25;5.95;;;46.10;31.60;;;;;;4927406;28;87027;-86
2021/07/10 12:15:53;;;;;;;6.35;6.05;;;45.60;31.20;;;;;;4930978;28;87287;-87
2021/07/10 12:18:22;;;;;;;4.20;3.90;;;45.40;31.60;;;;;;4917418;28;87916;-87
2021/07/10 12:20:57;;;;;;;4.22;3.90;;;45.60;32.00;;;;;;4934640;28;86640;-85
2021/07/10 12:23:27;;;;;;;6.95;6.45;;;45.60;31.80;;;;;;4928130;28;87288;-87
2021/07/10 12:26:11;;;;;;;6.10;5.80;;;45.80;31.70;;;;;;4934805;28;86824;-85
2021/07/10 12:28:54;;;;;;;4.50;4.20;;;45.90;31.90;;;;;;4924328;28;87026;-85
2021/07/10 12:31:23;;;;;;;5.95;5.65;;;45.30;31.80;;;;;;4928792;28;86731;-85
2021/07/10 12:33:56;;;;;;;6.20;5.90;;;44.80;31.90;;;;;;4926015;28;87822;-86
2021/07/10 12:36:28;;;;;;;5.90;5.50;;;44.30;33.30;;;;;;4929838;28;86685;-86
2021/07/10 12:38:55;;;;;;;6.03;5.57;;;43.70;34.10;;;;;;4923058;28;86857;-86
2021/07/10 12:41:25;;;;;;;5.95;5.65;;;43.80;32.80;;;;;;4938089;28;86889;-86
2021/07/10 12:43:52;;;;;;;3.88;3.67;;;44.30;33.30;;;;;;4921211;28;89523;-87
2021/07/10 12:46:18;;;;;;;6.07;5.75;;;43.80;32.60;;;;;;4923368;28;88049;-88
2021/07/10 12:48:45;;;;;;;6.30;5.93;;;43.80;32.70;;;;;;4912254;28;86901;-87
2021/07/10 12:51:11;;;;;;;6.20;5.80;;;44.10;32.60;;;;;;4922504;28;88097;-87
2021/07/10 12:53:39;;;;;;;6.10;5.70;;;44.00;32.80;;;;;;4922111;28;86955;-85
2021/07/10 12:56:27;;;;;;;6.38;5.95;;;44.00;33.10;;;;;;4925211;28;87152;-85
2021/07/10 12:58:54;;;;;;;6.47;6.17;;;43.30;32.80;;;;;;4923571;28;86925;-85
2021/07/10 13:01:24;;;;;;;5.90;5.60;;;42.20;33.40;;;;;;4924836;28;86120;-86
2021/07/10 13:03:52;;;;;;;6.40;6.00;;;42.30;34.10;;;;;;4925045;28;88728;-87
2021/07/10 13:06:18;;;;;;;4.32;4.03;;;42.70;33.10;;;;;;4924060;28;87488;-86
2021/07/10 13:08:58;;;;;;;6.32;6.03;;;42.60;34.10;;;;;;4923603;28;89524;-85
2021/07/10 13:11:24;;;;;;;6.10;5.80;;;42.80;34.20;;;;;;4925086;28;87095;-85
2021/07/10 13:13:55;;;;;;;5.95;5.63;;;42.10;34.00;;;;;;4925908;28;87670;-87
2021/07/10 13:16:21;;;;;;;6.18;5.88;;;41.90;34.90;;;;;;4921064;28;86836;-88
2021/07/10 13:18:55;;;;;;;6.10;5.80;;;41.60;34.20;;;;;;4925659;28;86928;-85
2021/07/10 13:21:35;;;;;;;5.82;5.50;;;41.10;35.00;;;;;;4928110;28;86814;-85
2021/07/10 13:24:13;;;;;;;5.90;5.60;;;41.20;35.10;;;;;;4923287;28;87068;-88
2021/07/10 13:26:49;;;;;;;5.80;5.55;;;40.80;36.40;;;;;;4922908;28;85898;-87
2021/07/10 13:29:18;;;;;;;6.00;5.53;;;40.50;36.10;;;;;;4936106;28;86851;-86
2021/07/10 13:31:46;;;;;;;;;;;40.60;36.20;;;;;;4938325;28;86636;-88
2021/07/10 13:34:25;;;;;;;5.65;5.45;;;40.10;36.50;;;;;;4932663;28;88147;-85
2021/07/10 13:36:54;;;;;;;6.13;5.72;;;39.60;36.00;;;;;;4937712;28;88988;-86
2021/07/10 13:39:45;;;;;;;5.50;5.20;;;39.00;36.60;;;;;;4937793;28;86658;-88
2021/07/10 13:42:14;;;;;;;5.82;5.40;;;38.20;37.40;;;;;;4926444;28;86923;-86
2021/07/10 13:44:45;;;;;;;3.95;3.75;;;38.30;37.90;;;;;;4929588;28;87447;-88
2021/07/10 13:47:15;;;;;;;5.45;5.15;;;38.00;37.70;;;;;;4929561;28;86926;-88
2021/07/10 13:49:48;;;;;;;5.70;5.40;;;37.60;38.00;;;;;;4924294;28;86990;-87
2021/07/10 13:52:13;;;;;;;5.63;5.32;;;37.70;38.30;;;;;;4924140;28;86395;-87
2021/07/10 13:54:58;;;;;;;5.55;5.25;;;37.60;39.00;;;;;;4927788;28;87236;-86
2021/07/10 13:57:25;;;;;;;5.55;5.25;;;37.70;38.80;;;;;;4928510;28;86839;-86
2021/07/10 14:00:18;;;;;;;5.05;4.75;;;37.70;38.10;;;;;;4927087;28;87516;-87
2021/07/10 14:02:51;;;;;;;5.55;5.20;;;37.60;39.10;;;;;;4926954;28;87176;-88
2021/07/10 14:05:40;;;;;;;5.80;5.50;;;37.20;39.20;;;;;;4927849;28;87100;-86
2021/07/10 14:08:14;;;;;;;5.68;5.38;;;37.30;39.10;;;;;;4921049;28;87515;-86
2021/07/10 14:10:50;;;;;;;5.22;4.93;;;37.20;38.20;;;;;;4926698;28;87050;-86
2021/07/10 14:13:22;;;;;;;5.22;4.97;;;37.20;38.40;;;;;;4937171;28;86808;-86
2021/07/10 14:15:51;;;;;;;5.15;4.85;;;37.10;37.40;;;;;;4933717;28;87016;-86
2021/07/10 14:18:17;;;;;;;4.90;4.70;;;37.00;38.50;;;;;;4931127;28;87773;-87
2021/07/10 14:20:46;;;;;;;5.15;4.95;;;36.60;38.70;;;;;;4935966;28;86920;-86
2021/07/10 14:23:13;;;;;;;5.40;5.00;;;36.30;39.20;;;;;;4935369;28;86983;-86
2021/07/10 14:25:39;;;;;;;5.25;4.95;;;36.20;38.70;;;;;;4942151;28;88046;-89
2021/07/10 14:28:05;;;;;;;4.90;4.70;;;35.30;38.20;;;;;;4940003;28;87081;-87
2021/07/10 14:30:32;;;;;;;4.95;4.72;;;34.80;38.60;;;;;;4930489;28;86466;-88
2021/07/10 14:32:59;;;;;;;3.10;2.90;;;34.80;39.00;;;;;;4931822;28;86964;-87
2021/07/10 14:35:26;;;;;;;4.80;4.60;;;33.30;41.70;;;;;;4931229;28;88427;-87
2021/07/10 14:37:53;;;;;;;5.20;4.90;;;33.00;41.40;;;;;;4930034;28;86539;-87
2021/07/10 14:40:22;;;;;;;5.10;4.80;;;33.00;42.50;;;;;;4931219;28;86591;-88
2021/07/10 14:42:48;;;;;;;4.90;4.60;;;32.70;42.60;;;;;;4928925;28;86189;-86
2021/07/10 14:45:14;;;;;;;5.10;4.80;;;32.80;43.10;;;;;;4929667;28;87776;-86
2021/07/10 14:47:42;;;;;;;4.78;4.50;;;32.80;43.50;;;;;;4928598;28;86904;-87
2021/07/10 14:50:08;;;;;;;4.70;4.45;;;33.00;42.90;;;;;;4927940;28;87563;-88
2021/07/10 14:52:35;;;;;;;4.80;4.50;;;;;;;;;;4928627;28;87122;-87
2021/07/10 14:55:01;;;;;;;4.80;4.55;;;32.80;43.20;;;;;;4930101;28;86990;-89
2021/07/10 14:57:27;;;;;;;4.70;4.40;;;32.80;43.00;;;;;;4929831;28;86531;-87
2021/07/10 14:59:53;;;;;;;4.63;4.43;;;32.80;43.50;;;;;;4932097;28;86977;-87
2021/07/10 15:02:18;;;;;;;4.80;4.47;;;32.60;43.80;;;;;;4927599;28;87068;-87
2021/07/10 15:04:44;;;;;;;4.35;4.15;;;32.20;44.00;;;;;;4930146;28;87664;-87
2021/07/10 15:07:10;;;;;;;4.38;4.18;;;31.60;44.00;;;;;;4931608;28;86227;-87
2021/07/10 15:09:36;;;;;;;4.55;4.25;;;;;;;;;;4930670;28;86802;-88
2021/07/10 15:12:02;;;;;;;4.25;4.05;;;;;;;;;;4929487;28;87081;-89
2021/07/10 15:14:27;;;;;;;4.60;4.20;;;30.50;44.90;;;;;;4928040;28;87843;-87
2021/07/10 15:16:53;;;;;;;4.70;4.50;;;30.70;45.50;;;;;;4928672;28;88068;-86
2021/07/10 15:19:19;;;;;;;4.53;4.13;;;30.80;45.90;;;;;;4928749;28;87001;-86
2021/07/10 15:21:45;;;;;;;4.80;4.50;;;30.60;45.80;;;;;;4936663;28;87129;-87
2021/07/10 15:24:11;;;;;;;4.90;4.50;;;30.60;45.00;;;;;;4928998;28;87248;-88
2021/07/10 15:26:37;;;;;;;5.00;4.78;;;30.70;45.60;;;;;;4928644;28;87036;-89
2021/07/10 15:29:03;;;;;;;4.57;4.38;;;30.80;46.00;;;;;;4927798;28;87069;-87
2021/07/10 15:31:30;;;;;;;4.90;4.50;;;30.90;44.80;;;;;;4916078;28;85913;-87
2021/07/10 15:33:57;;;;;;;4.57;4.35;;;;;;;;;;4928648;28;87742;-87
2021/07/10 15:36:22;;;;;;;4.60;4.40;;;31.00;45.40;;;;;;4929488;28;86926;-89
2021/07/10 15:38:48;;;;;;;4.07;3.88;;;31.10;44.40;;;;;;4929761;28;87760;-89
2021/07/10 15:41:14;;;;;;;4.40;4.10;;;31.20;44.40;;;;;;4926994;28;86960;-89
2021/07/10 15:43:40;;;;;;;4.50;4.20;;;31.20;42.40;;;;;;4927504;28;89865;-88
2021/07/10 15:46:06;;;;;;;3.92;3.72;;;;;;;;;;4927919;28;86494;-87
2021/07/10 15:48:32;;;;;;;4.05;3.85;;;31.30;42.60;;;;;;4919133;28;86944;-89
2021/07/10 15:50:58;;;;;;;2.40;2.30;;;31.20;42.50;;;;;;4928132;28;87097;-88
2021/07/10 15:53:24;;;;;;;4.20;4.00;;;31.20;42.70;;;;;;4930340;28;86983;-89
2021/07/10 15:55:52;;;;;;;4.07;3.88;;;31.10;43.90;;;;;;4930633;28;86422;-87
2021/07/10 15:58:18;;;;;;;4.22;3.95;;;;;;;;;;4920099;28;86126;-88
2021/07/10 16:00:44;;;;;;;4.32;4.10;;;;;;;;;;4925346;28;87038;-88
2021/07/10 16:03:11;;;;;;;3.90;3.70;;;30.70;44.00;;;;;;4921660;28;89498;-88
2021/07/10 16:05:37;;;;;;;4.10;3.90;;;30.60;45.60;;;;;;4923282;28;88411;-86
2021/07/10 16:08:03;;;;;;;4.10;3.90;;;30.70;44.30;;;;;;4926765;28;87043;-88
2021/07/10 16:10:30;;;;;;;4.18;3.97;;;30.50;44.30;;;;;;4931110;28;87091;-88
2021/07/10 16:12:57;;;;;;;3.10;2.90;;;30.50;44.80;;;;;;4930626;28;87831;-89
2021/07/10 16:15:23;;;;;;;3.90;3.70;;;30.20;45.40;;;;;;4931867;28;86936;-88
2021/07/10 16:17:54;;;;;;;4.40;4.10;;;30.10;45.90;;;;;;4929242;28;86592;-88
2021/07/10 16:20:21;;;;;;;4.10;3.90;;;30.10;45.60;;;;;;4930309;28;86405;-90
2021/07/10 16:22:47;;;;;;;3.90;3.70;;;;;;;;;;4928956;28;87776;-87
2021/07/10 16:25:15;;;;;;;4.22;4.03;;;29.70;45.30;;;;;;4928739;28;87133;-88